Terminal Aerodrome Forecast
Issued by NWS

Home | Current Version | Previous Version | Text Only | Print | Product List | Glossary On
Versions: 1 2 3 4 5 6 7 8 9 10 11 12 13 14 15 16 17
000
FTUS44 KOUN 240537
TAFHBR
TAF
KHBR 240537Z 2406/2506 13017G26KT P6SM FEW120
     FM241100 26019G28KT P6SM SCT030 BKN120
     FM241400 32026G37KT P6SM SCT150
     FM250100 02009KT P6SM SKC=

USA.gov is the U.S. government's official web portal to all federal, state and local government web resources and services.